Prichard, Mississippi
Current Conditions -  °F | °C
As of 8:55 AM on Monday 24 Nov 2014 (Local Time) from KUTA Reporting Station
Clear Clear  
Wind Chill: 50°   Ceiling: Unl
Heat Index: 50°   Visibility: 10mi
Dew Point: 37°   Wind: 14mph
Humidity: 62%   Direction: 270°W
Pressure: 29.88"   Gusts: NA
Location:  34.6827°N, 90.3615°W
Report Text: KUTA 241455Z AUTO 27012KT 10SM CLR 10/03 A2988 RMK AO2
Loading
Personal Weather Stations






























Interactive Weather Map New forecast layout! Learn more

10-Day Weather Forecast

Advertisements
Track Severe Weather on mobile